sensor_id;sensor_type;location;lat;lon;timestamp;P1;durP1;ratioP1;P2;durP2;ratioP2
48813;SDS011;34634;44.108;3.074;2023-03-24T00:00:13;3.00;;;1.67;;
48813;SDS011;34634;44.108;3.074;2023-03-24T00:02:40;3.25;;;1.77;;
48813;SDS011;34634;44.108;3.074;2023-03-24T00:05:08;2.35;;;1.60;;
48813;SDS011;34634;44.108;3.074;2023-03-24T00:07:35;2.08;;;1.42;;
48813;SDS011;34634;44.108;3.074;2023-03-24T00:10:04;2.50;;;1.42;;
48813;SDS011;34634;44.108;3.074;2023-03-24T00:12:32;1.98;;;1.48;;
48813;SDS011;34634;44.108;3.074;2023-03-24T00:15:06;2.10;;;1.38;;
48813;SDS011;34634;44.108;3.074;2023-03-24T00:17:33;2.22;;;1.23;;
48813;SDS011;34634;44.108;3.074;2023-03-24T00:20:05;2.78;;;1.83;;
48813;SDS011;34634;44.108;3.074;2023-03-24T00:22:36;3.33;;;1.35;;
48813;SDS011;34634;44.108;3.074;2023-03-24T00:25:09;2.30;;;1.43;;
48813;SDS011;34634;44.108;3.074;2023-03-24T00:27:36;1.27;;;1.10;;
48813;SDS011;34634;44.108;3.074;2023-03-24T00:30:04;2.50;;;1.20;;
48813;SDS011;34634;44.108;3.074;2023-03-24T00:32:31;2.15;;;1.10;;
48813;SDS011;34634;44.108;3.074;2023-03-24T00:34:57;3.63;;;1.38;;
48813;SDS011;34634;44.108;3.074;2023-03-24T00:37:24;1.63;;;1.00;;
48813;SDS011;34634;44.108;3.074;2023-03-24T00:39:51;2.20;;;1.10;;
48813;SDS011;34634;44.108;3.074;2023-03-24T00:42:17;1.67;;;1.00;;
48813;SDS011;34634;44.108;3.074;2023-03-24T00:44:44;1.48;;;1.08;;
48813;SDS011;34634;44.108;3.074;2023-03-24T00:47:10;2.03;;;1.33;;
48813;SDS011;34634;44.108;3.074;2023-03-24T00:49:36;1.58;;;1.10;;
48813;SDS011;34634;44.108;3.074;2023-03-24T00:52:13;1.05;;;0.90;;
48813;SDS011;34634;44.108;3.074;2023-03-24T00:54:42;4.40;;;1.45;;
48813;SDS011;34634;44.108;3.074;2023-03-24T00:57:11;1.77;;;1.10;;
48813;SDS011;34634;44.108;3.074;2023-03-24T00:59:38;1.02;;;0.82;;
48813;SDS011;34634;44.108;3.074;2023-03-24T01:02:13;2.03;;;0.90;;
48813;SDS011;34634;44.108;3.074;2023-03-24T01:04:40;2.25;;;1.10;;
48813;SDS011;34634;44.108;3.074;2023-03-24T01:07:11;2.95;;;0.95;;
48813;SDS011;34634;44.108;3.074;2023-03-24T01:12:08;0.98;;;0.80;;
48813;SDS011;34634;44.108;3.074;2023-03-24T01:14:35;0.80;;;0.80;;
48813;SDS011;34634;44.108;3.074;2023-03-24T01:17:01;2.40;;;1.00;;
48813;SDS011;34634;44.108;3.074;2023-03-24T01:19:30;0.93;;;0.93;;
48813;SDS011;34634;44.108;3.074;2023-03-24T01:21:57;1.77;;;0.90;;
48813;SDS011;34634;44.108;3.074;2023-03-24T01:24:23;1.17;;;0.75;;
48813;SDS011;34634;44.108;3.074;2023-03-24T01:26:50;0.80;;;0.77;;
48813;SDS011;34634;44.108;3.074;2023-03-24T01:29:16;1.20;;;0.60;;
48813;SDS011;34634;44.108;3.074;2023-03-24T01:31:43;1.08;;;0.70;;
48813;SDS011;34634;44.108;3.074;2023-03-24T01:34:09;0.60;;;0.60;;
48813;SDS011;34634;44.108;3.074;2023-03-24T01:36:35;1.25;;;0.70;;
48813;SDS011;34634;44.108;3.074;2023-03-24T01:39:02;1.13;;;0.65;;
48813;SDS011;34634;44.108;3.074;2023-03-24T01:41:31;0.75;;;0.75;;
48813;SDS011;34634;44.108;3.074;2023-03-24T01:43:58;1.63;;;0.68;;
48813;SDS011;34634;44.108;3.074;2023-03-24T01:46:25;0.47;;;0.47;;
48813;SDS011;34634;44.108;3.074;2023-03-24T01:48:55;0.40;;;0.40;;
48813;SDS011;34634;44.108;3.074;2023-03-24T01:51:28;2.08;;;0.50;;
48813;SDS011;34634;44.108;3.074;2023-03-24T01:56:25;0.43;;;0.43;;
48813;SDS011;34634;44.108;3.074;2023-03-24T01:58:55;1.10;;;0.50;;
48813;SDS011;34634;44.108;3.074;2023-03-24T02:01:23;0.40;;;0.40;;
48813;SDS011;34634;44.108;3.074;2023-03-24T02:03:54;0.50;;;0.50;;
48813;SDS011;34634;44.108;3.074;2023-03-24T02:06:21;1.17;;;0.50;;
48813;SDS011;34634;44.108;3.074;2023-03-24T02:08:51;0.73;;;0.60;;
48813;SDS011;34634;44.108;3.074;2023-03-24T02:11:18;0.90;;;0.47;;
48813;SDS011;34634;44.108;3.074;2023-03-24T02:13:45;0.50;;;0.50;;
48813;SDS011;34634;44.108;3.074;2023-03-24T02:26:16;0.88;;;0.75;;
48813;SDS011;34634;44.108;3.074;2023-03-24T02:28:55;0.85;;;0.60;;
48813;SDS011;34634;44.108;3.074;2023-03-24T02:34:15;1.13;;;1.02;;
48813;SDS011;34634;44.108;3.074;2023-03-24T02:41:50;1.58;;;0.90;;
48813;SDS011;34634;44.108;3.074;2023-03-24T02:44:20;0.90;;;0.73;;
48813;SDS011;34634;44.108;3.074;2023-03-24T02:47:13;2.22;;;0.95;;
48813;SDS011;34634;44.108;3.074;2023-03-24T02:54:43;1.35;;;0.88;;
48813;SDS011;34634;44.108;3.074;2023-03-24T02:59:49;1.25;;;1.00;;
48813;SDS011;34634;44.108;3.074;2023-03-24T03:02:20;2.20;;;1.40;;
48813;SDS011;34634;44.108;3.074;2023-03-24T03:04:50;1.75;;;1.00;;
48813;SDS011;34634;44.108;3.074;2023-03-24T03:07:20;2.15;;;1.02;;
48813;SDS011;34634;44.108;3.074;2023-03-24T03:09:48;3.13;;;1.33;;
48813;SDS011;34634;44.108;3.074;2023-03-24T03:12:17;3.30;;;1.50;;
48813;SDS011;34634;44.108;3.074;2023-03-24T03:14:46;2.83;;;1.80;;
48813;SDS011;34634;44.108;3.074;2023-03-24T03:19:44;3.60;;;1.75;;
48813;SDS011;34634;44.108;3.074;2023-03-24T03:22:20;1.20;;;1.10;;
48813;SDS011;34634;44.108;3.074;2023-03-24T03:24:48;3.38;;;1.70;;
48813;SDS011;34634;44.108;3.074;2023-03-24T03:27:27;2.13;;;1.52;;
48813;SDS011;34634;44.108;3.074;2023-03-24T03:32:59;3.20;;;2.03;;
48813;SDS011;34634;44.108;3.074;2023-03-24T03:35:33;5.25;;;2.33;;
48813;SDS011;34634;44.108;3.074;2023-03-24T03:40:49;2.00;;;1.60;;
48813;SDS011;34634;44.108;3.074;2023-03-24T03:43:16;3.00;;;1.60;;
48813;SDS011;34634;44.108;3.074;2023-03-24T03:45:43;1.77;;;1.58;;
48813;SDS011;34634;44.108;3.074;2023-03-24T03:48:09;3.10;;;1.70;;
48813;SDS011;34634;44.108;3.074;2023-03-24T03:50:36;3.83;;;2.17;;
48813;SDS011;34634;44.108;3.074;2023-03-24T03:53:04;2.50;;;1.90;;
48813;SDS011;34634;44.108;3.074;2023-03-24T03:55:30;1.75;;;1.30;;
48813;SDS011;34634;44.108;3.074;2023-03-24T03:57:58;2.75;;;1.63;;
48813;SDS011;34634;44.108;3.074;2023-03-24T04:00:24;2.88;;;1.90;;
48813;SDS011;34634;44.108;3.074;2023-03-24T04:05:43;4.03;;;2.13;;
48813;SDS011;34634;44.108;3.074;2023-03-24T04:11:06;3.65;;;2.28;;
48813;SDS011;34634;44.108;3.074;2023-03-24T04:19:08;4.63;;;2.17;;
48813;SDS011;34634;44.108;3.074;2023-03-24T04:27:04;3.90;;;2.30;;
48813;SDS011;34634;44.108;3.074;2023-03-24T04:29:40;3.95;;;2.10;;
48813;SDS011;34634;44.108;3.074;2023-03-24T04:32:20;5.03;;;2.85;;
48813;SDS011;34634;44.108;3.074;2023-03-24T04:34:52;4.45;;;1.90;;
48813;SDS011;34634;44.108;3.074;2023-03-24T04:37:27;3.85;;;2.28;;
48813;SDS011;34634;44.108;3.074;2023-03-24T04:39:57;4.38;;;2.35;;
48813;SDS011;34634;44.108;3.074;2023-03-24T04:42:26;4.35;;;2.40;;
48813;SDS011;34634;44.108;3.074;2023-03-24T04:44:54;3.85;;;2.30;;
48813;SDS011;34634;44.108;3.074;2023-03-24T04:47:23;2.80;;;2.05;;
48813;SDS011;34634;44.108;3.074;2023-03-24T04:49:58;2.63;;;2.10;;
48813;SDS011;34634;44.108;3.074;2023-03-24T04:52:25;3.33;;;2.20;;
48813;SDS011;34634;44.108;3.074;2023-03-24T04:54:52;5.35;;;2.70;;
48813;SDS011;34634;44.108;3.074;2023-03-24T04:57:18;4.80;;;2.60;;
48813;SDS011;34634;44.108;3.074;2023-03-24T04:59:45;4.35;;;2.47;;
48813;SDS011;34634;44.108;3.074;2023-03-24T05:02:11;4.88;;;3.17;;
48813;SDS011;34634;44.108;3.074;2023-03-24T05:04:38;5.75;;;2.70;;
48813;SDS011;34634;44.108;3.074;2023-03-24T05:07:04;4.05;;;2.50;;
48813;SDS011;34634;44.108;3.074;2023-03-24T05:09:30;5.35;;;2.17;;
48813;SDS011;34634;44.108;3.074;2023-03-24T05:11:57;7.85;;;2.17;;
48813;SDS011;34634;44.108;3.074;2023-03-24T05:14:23;4.22;;;2.47;;
48813;SDS011;34634;44.108;3.074;2023-03-24T05:16:50;2.95;;;2.00;;
48813;SDS011;34634;44.108;3.074;2023-03-24T05:19:16;3.28;;;2.33;;
48813;SDS011;34634;44.108;3.074;2023-03-24T05:21:42;5.38;;;2.58;;
48813;SDS011;34634;44.108;3.074;2023-03-24T05:24:09;4.47;;;2.42;;
48813;SDS011;34634;44.108;3.074;2023-03-24T05:26:36;5.90;;;2.55;;
48813;SDS011;34634;44.108;3.074;2023-03-24T05:29:02;3.75;;;2.55;;
48813;SDS011;34634;44.108;3.074;2023-03-24T05:31:29;5.53;;;2.50;;
48813;SDS011;34634;44.108;3.074;2023-03-24T05:33:55;4.07;;;2.25;;
48813;SDS011;34634;44.108;3.074;2023-03-24T05:36:21;4.28;;;2.25;;
48813;SDS011;34634;44.108;3.074;2023-03-24T05:38:48;4.47;;;2.47;;
48813;SDS011;34634;44.108;3.074;2023-03-24T05:41:14;4.32;;;2.60;;
48813;SDS011;34634;44.108;3.074;2023-03-24T05:43:40;3.35;;;2.47;;
48813;SDS011;34634;44.108;3.074;2023-03-24T05:46:07;5.55;;;2.53;;
48813;SDS011;34634;44.108;3.074;2023-03-24T05:48:33;5.63;;;2.88;;
48813;SDS011;34634;44.108;3.074;2023-03-24T05:51:00;4.47;;;2.60;;
48813;SDS011;34634;44.108;3.074;2023-03-24T05:53:26;5.32;;;2.50;;
48813;SDS011;34634;44.108;3.074;2023-03-24T05:55:52;5.15;;;2.80;;
48813;SDS011;34634;44.108;3.074;2023-03-24T05:58:19;2.78;;;2.20;;
48813;SDS011;34634;44.108;3.074;2023-03-24T06:00:45;5.53;;;2.20;;
48813;SDS011;34634;44.108;3.074;2023-03-24T06:03:12;3.80;;;2.17;;
48813;SDS011;34634;44.108;3.074;2023-03-24T06:05:41;5.68;;;2.20;;
48813;SDS011;34634;44.108;3.074;2023-03-24T06:08:10;6.97;;;2.40;;
48813;SDS011;34634;44.108;3.074;2023-03-24T06:10:36;2.85;;;2.28;;
48813;SDS011;34634;44.108;3.074;2023-03-24T06:13:03;4.53;;;2.42;;
48813;SDS011;34634;44.108;3.074;2023-03-24T06:15:29;6.85;;;2.40;;
48813;SDS011;34634;44.108;3.074;2023-03-24T06:17:55;3.88;;;2.63;;
48813;SDS011;34634;44.108;3.074;2023-03-24T06:20:22;3.85;;;2.70;;
48813;SDS011;34634;44.108;3.074;2023-03-24T06:22:48;5.20;;;2.67;;
48813;SDS011;34634;44.108;3.074;2023-03-24T06:25:15;6.53;;;2.78;;
48813;SDS011;34634;44.108;3.074;2023-03-24T06:27:42;6.25;;;2.95;;
48813;SDS011;34634;44.108;3.074;2023-03-24T06:30:13;3.15;;;2.20;;
48813;SDS011;34634;44.108;3.074;2023-03-24T06:32:40;3.20;;;2.20;;
48813;SDS011;34634;44.108;3.074;2023-03-24T06:35:11;9.50;;;2.15;;
48813;SDS011;34634;44.108;3.074;2023-03-24T06:37:38;3.58;;;2.00;;
48813;SDS011;34634;44.108;3.074;2023-03-24T06:40:05;3.22;;;2.00;;
48813;SDS011;34634;44.108;3.074;2023-03-24T06:42:34;3.67;;;2.28;;
48813;SDS011;34634;44.108;3.074;2023-03-24T06:45:00;2.90;;;1.73;;
48813;SDS011;34634;44.108;3.074;2023-03-24T06:47:27;2.63;;;2.10;;
48813;SDS011;34634;44.108;3.074;2023-03-24T06:49:53;3.83;;;1.85;;
48813;SDS011;34634;44.108;3.074;2023-03-24T06:52:20;1.60;;;1.50;;
48813;SDS011;34634;44.108;3.074;2023-03-24T06:54:46;3.92;;;1.85;;
48813;SDS011;34634;44.108;3.074;2023-03-24T06:57:13;2.88;;;1.65;;
48813;SDS011;34634;44.108;3.074;2023-03-24T06:59:39;3.78;;;1.65;;
48813;SDS011;34634;44.108;3.074;2023-03-24T07:02:07;1.75;;;1.65;;
48813;SDS011;34634;44.108;3.074;2023-03-24T07:04:36;3.17;;;1.83;;
48813;SDS011;34634;44.108;3.074;2023-03-24T07:07:03;1.95;;;1.58;;
48813;SDS011;34634;44.108;3.074;2023-03-24T07:09:29;2.88;;;1.70;;
48813;SDS011;34634;44.108;3.074;2023-03-24T07:11:57;3.13;;;1.60;;
48813;SDS011;34634;44.108;3.074;2023-03-24T07:14:23;17.75;;;2.30;;
48813;SDS011;34634;44.108;3.074;2023-03-24T07:16:50;6.05;;;1.85;;
48813;SDS011;34634;44.108;3.074;2023-03-24T07:19:18;2.42;;;1.92;;
48813;SDS011;34634;44.108;3.074;2023-03-24T07:21:45;4.43;;;1.85;;
48813;SDS011;34634;44.108;3.074;2023-03-24T07:24:17;4.00;;;2.05;;
48813;SDS011;34634;44.108;3.074;2023-03-24T07:26:43;2.50;;;1.60;;
48813;SDS011;34634;44.108;3.074;2023-03-24T07:29:10;6.40;;;1.85;;
48813;SDS011;34634;44.108;3.074;2023-03-24T07:31:36;4.03;;;1.85;;
48813;SDS011;34634;44.108;3.074;2023-03-24T07:34:04;2.45;;;1.80;;
48813;SDS011;34634;44.108;3.074;2023-03-24T07:36:30;3.28;;;1.83;;
48813;SDS011;34634;44.108;3.074;2023-03-24T07:38:57;4.18;;;1.80;;
48813;SDS011;34634;44.108;3.074;2023-03-24T07:41:23;2.72;;;1.75;;
48813;SDS011;34634;44.108;3.074;2023-03-24T07:43:51;4.75;;;1.92;;
48813;SDS011;34634;44.108;3.074;2023-03-24T07:46:17;2.17;;;1.85;;
48813;SDS011;34634;44.108;3.074;2023-03-24T07:48:43;3.25;;;2.13;;
48813;SDS011;34634;44.108;3.074;2023-03-24T07:51:11;1.98;;;1.60;;
48813;SDS011;34634;44.108;3.074;2023-03-24T07:53:37;2.25;;;1.60;;
48813;SDS011;34634;44.108;3.074;2023-03-24T07:56:03;3.72;;;1.70;;
48813;SDS011;34634;44.108;3.074;2023-03-24T07:58:30;1.70;;;1.60;;
48813;SDS011;34634;44.108;3.074;2023-03-24T08:00:56;5.30;;;1.92;;
48813;SDS011;34634;44.108;3.074;2023-03-24T08:03:22;3.13;;;1.50;;
48813;SDS011;34634;44.108;3.074;2023-03-24T08:05:51;2.20;;;1.70;;
48813;SDS011;34634;44.108;3.074;2023-03-24T08:08:19;3.42;;;1.85;;
48813;SDS011;34634;44.108;3.074;2023-03-24T08:10:46;2.92;;;1.80;;
48813;SDS011;34634;44.108;3.074;2023-03-24T08:13:14;2.45;;;1.65;;
48813;SDS011;34634;44.108;3.074;2023-03-24T08:15:41;2.58;;;1.90;;
48813;SDS011;34634;44.108;3.074;2023-03-24T08:18:07;2.63;;;1.58;;
48813;SDS011;34634;44.108;3.074;2023-03-24T08:20:34;3.20;;;1.80;;
48813;SDS011;34634;44.108;3.074;2023-03-24T08:23:00;2.30;;;1.60;;
48813;SDS011;34634;44.108;3.074;2023-03-24T08:25:29;4.93;;;2.03;;
48813;SDS011;34634;44.108;3.074;2023-03-24T08:27:55;3.55;;;1.70;;
48813;SDS011;34634;44.108;3.074;2023-03-24T08:30:22;2.40;;;1.70;;
48813;SDS011;34634;44.108;3.074;2023-03-24T08:32:51;3.17;;;1.55;;
48813;SDS011;34634;44.108;3.074;2023-03-24T08:35:18;2.05;;;1.52;;
48813;SDS011;34634;44.108;3.074;2023-03-24T08:37:45;3.67;;;1.80;;
48813;SDS011;34634;44.108;3.074;2023-03-24T08:40:12;1.40;;;1.25;;
48813;SDS011;34634;44.108;3.074;2023-03-24T08:42:42;3.92;;;1.45;;
48813;SDS011;34634;44.108;3.074;2023-03-24T08:45:10;1.55;;;1.23;;
48813;SDS011;34634;44.108;3.074;2023-03-24T08:47:37;2.92;;;1.63;;
48813;SDS011;34634;44.108;3.074;2023-03-24T08:50:05;4.13;;;1.95;;
48813;SDS011;34634;44.108;3.074;2023-03-24T08:52:32;3.05;;;1.48;;
48813;SDS011;34634;44.108;3.074;2023-03-24T08:54:58;1.13;;;0.98;;
48813;SDS011;34634;44.108;3.074;2023-03-24T08:57:25;2.13;;;1.10;;
48813;SDS011;34634;44.108;3.074;2023-03-24T08:59:51;1.10;;;1.00;;
48813;SDS011;34634;44.108;3.074;2023-03-24T09:02:18;1.20;;;1.10;;
48813;SDS011;34634;44.108;3.074;2023-03-24T09:04:44;4.05;;;1.50;;
48813;SDS011;34634;44.108;3.074;2023-03-24T09:07:10;2.92;;;1.02;;
48813;SDS011;34634;44.108;3.074;2023-03-24T09:09:37;1.75;;;1.02;;
48813;SDS011;34634;44.108;3.074;2023-03-24T09:12:04;1.70;;;1.60;;
48813;SDS011;34634;44.108;3.074;2023-03-24T09:14:30;1.27;;;1.17;;
48813;SDS011;34634;44.108;3.074;2023-03-24T09:16:57;1.33;;;0.82;;
48813;SDS011;34634;44.108;3.074;2023-03-24T09:19:23;0.90;;;0.90;;
48813;SDS011;34634;44.108;3.074;2023-03-24T09:21:50;1.08;;;0.85;;
48813;SDS011;34634;44.108;3.074;2023-03-24T09:24:16;0.82;;;0.80;;
48813;SDS011;34634;44.108;3.074;2023-03-24T09:26:42;1.80;;;1.17;;
48813;SDS011;34634;44.108;3.074;2023-03-24T09:29:09;0.60;;;0.60;;
48813;SDS011;34634;44.108;3.074;2023-03-24T09:31:36;0.85;;;0.85;;
48813;SDS011;34634;44.108;3.074;2023-03-24T09:34:02;1.30;;;0.85;;
48813;SDS011;34634;44.108;3.074;2023-03-24T09:36:28;1.98;;;1.00;;
48813;SDS011;34634;44.108;3.074;2023-03-24T09:38:55;1.52;;;0.85;;
48813;SDS011;34634;44.108;3.074;2023-03-24T09:41:24;0.82;;;0.82;;
48813;SDS011;34634;44.108;3.074;2023-03-24T09:46:35;1.58;;;1.10;;
48813;SDS011;34634;44.108;3.074;2023-03-24T09:49:02;4.95;;;0.88;;
48813;SDS011;34634;44.108;3.074;2023-03-24T09:56:35;1.00;;;1.00;;
48813;SDS011;34634;44.108;3.074;2023-03-24T09:59:47;1.00;;;0.90;;
48813;SDS011;34634;44.108;3.074;2023-03-24T10:01:49;1.52;;;0.75;;
48813;SDS011;34634;44.108;3.074;2023-03-24T10:04:19;1.00;;;0.80;;
48813;SDS011;34634;44.108;3.074;2023-03-24T10:06:47;1.10;;;0.93;;
48813;SDS011;34634;44.108;3.074;2023-03-24T10:16:45;1.00;;;0.90;;
48813;SDS011;34634;44.108;3.074;2023-03-24T10:19:21;1.05;;;0.95;;
48813;SDS011;34634;44.108;3.074;2023-03-24T10:29:41;2.05;;;1.00;;
48813;SDS011;34634;44.108;3.074;2023-03-24T10:32:20;1.17;;;1.00;;
48813;SDS011;34634;44.108;3.074;2023-03-24T10:34:58;1.48;;;0.80;;
48813;SDS011;34634;44.108;3.074;2023-03-24T10:37:33;1.17;;;1.00;;
48813;SDS011;34634;44.108;3.074;2023-03-24T10:39:59;1.63;;;0.80;;
48813;SDS011;34634;44.108;3.074;2023-03-24T10:42:27;2.45;;;0.70;;
48813;SDS011;34634;44.108;3.074;2023-03-24T10:44:55;1.15;;;0.80;;
48813;SDS011;34634;44.108;3.074;2023-03-24T10:47:23;2.40;;;1.00;;
48813;SDS011;34634;44.108;3.074;2023-03-24T10:49:51;1.15;;;0.80;;
48813;SDS011;34634;44.108;3.074;2023-03-24T10:52:18;0.98;;;0.80;;
48813;SDS011;34634;44.108;3.074;2023-03-24T10:54:54;1.23;;;0.90;;
48813;SDS011;34634;44.108;3.074;2023-03-24T10:57:21;0.90;;;0.90;;
48813;SDS011;34634;44.108;3.074;2023-03-24T11:02:25;1.38;;;0.88;;
48813;SDS011;34634;44.108;3.074;2023-03-24T11:04:57;3.72;;;0.90;;
48813;SDS011;34634;44.108;3.074;2023-03-24T11:07:34;1.20;;;0.93;;
48813;SDS011;34634;44.108;3.074;2023-03-24T11:10:06;2.75;;;0.90;;
48813;SDS011;34634;44.108;3.074;2023-03-24T11:12:33;0.82;;;0.80;;
48813;SDS011;34634;44.108;3.074;2023-03-24T11:17:40;1.40;;;1.20;;
48813;SDS011;34634;44.108;3.074;2023-03-24T11:20:17;1.08;;;0.80;;
48813;SDS011;34634;44.108;3.074;2023-03-24T11:23:03;1.92;;;0.93;;
48813;SDS011;34634;44.108;3.074;2023-03-24T11:25:32;0.85;;;0.80;;
48813;SDS011;34634;44.108;3.074;2023-03-24T11:28:01;1.02;;;0.90;;
48813;SDS011;34634;44.108;3.074;2023-03-24T11:30:32;1.42;;;1.10;;
48813;SDS011;34634;44.108;3.074;2023-03-24T11:32:59;1.00;;;0.90;;
48813;SDS011;34634;44.108;3.074;2023-03-24T11:35:28;3.25;;;1.10;;
48813;SDS011;34634;44.108;3.074;2023-03-24T11:37:55;1.17;;;0.93;;
48813;SDS011;34634;44.108;3.074;2023-03-24T11:40:22;1.52;;;1.20;;
48813;SDS011;34634;44.108;3.074;2023-03-24T11:42:53;1.50;;;1.00;;
48813;SDS011;34634;44.108;3.074;2023-03-24T11:47:46;2.00;;;1.10;;
48813;SDS011;34634;44.108;3.074;2023-03-24T11:50:16;1.48;;;1.00;;
48813;SDS011;34634;44.108;3.074;2023-03-24T11:55:34;1.08;;;1.05;;
48813;SDS011;34634;44.108;3.074;2023-03-24T11:58:26;1.65;;;0.90;;
48813;SDS011;34634;44.108;3.074;2023-03-24T12:01:11;1.80;;;1.08;;
48813;SDS011;34634;44.108;3.074;2023-03-24T12:06:15;3.22;;;1.30;;
48813;SDS011;34634;44.108;3.074;2023-03-24T12:11:16;5.68;;;1.20;;
48813;SDS011;34634;44.108;3.074;2023-03-24T12:13:46;1.73;;;1.25;;
48813;SDS011;34634;44.108;3.074;2023-03-24T12:26:59;1.90;;;1.40;;
48813;SDS011;34634;44.108;3.074;2023-03-24T12:29:31;3.22;;;1.33;;
48813;SDS011;34634;44.108;3.074;2023-03-24T12:37:23;3.03;;;0.90;;
48813;SDS011;34634;44.108;3.074;2023-03-24T12:42:20;2.40;;;0.90;;
48813;SDS011;34634;44.108;3.074;2023-03-24T12:52:59;1.65;;;1.15;;
48813;SDS011;34634;44.108;3.074;2023-03-24T12:57:59;2.78;;;2.22;;
48813;SDS011;34634;44.108;3.074;2023-03-24T13:00:28;1.92;;;1.67;;
48813;SDS011;34634;44.108;3.074;2023-03-24T13:03:05;2.05;;;1.30;;
48813;SDS011;34634;44.108;3.074;2023-03-24T13:05:37;1.17;;;1.08;;
48813;SDS011;34634;44.108;3.074;2023-03-24T13:08:09;2.58;;;1.23;;
48813;SDS011;34634;44.108;3.074;2023-03-24T13:10:37;1.92;;;1.40;;
48813;SDS011;34634;44.108;3.074;2023-03-24T13:13:17;2.55;;;1.17;;
48813;SDS011;34634;44.108;3.074;2023-03-24T13:15:49;4.55;;;0.90;;
48813;SDS011;34634;44.108;3.074;2023-03-24T13:20:48;4.22;;;1.20;;
48813;SDS011;34634;44.108;3.074;2023-03-24T13:25:50;1.88;;;1.20;;
48813;SDS011;34634;44.108;3.074;2023-03-24T13:28:24;1.55;;;0.80;;
48813;SDS011;34634;44.108;3.074;2023-03-24T13:30:52;4.95;;;1.35;;
48813;SDS011;34634;44.108;3.074;2023-03-24T13:33:23;1.63;;;1.00;;
48813;SDS011;34634;44.108;3.074;2023-03-24T13:38:22;2.08;;;1.30;;
48813;SDS011;34634;44.108;3.074;2023-03-24T13:40:54;1.92;;;1.48;;
48813;SDS011;34634;44.108;3.074;2023-03-24T13:43:22;2.35;;;1.15;;
48813;SDS011;34634;44.108;3.074;2023-03-24T13:45:50;2.25;;;1.27;;
48813;SDS011;34634;44.108;3.074;2023-03-24T13:48:28;1.83;;;1.30;;
48813;SDS011;34634;44.108;3.074;2023-03-24T13:50:57;2.22;;;1.25;;
48813;SDS011;34634;44.108;3.074;2023-03-24T13:56:09;1.60;;;1.25;;
48813;SDS011;34634;44.108;3.074;2023-03-24T13:58:45;5.45;;;1.30;;
48813;SDS011;34634;44.108;3.074;2023-03-24T14:01:17;1.90;;;1.45;;
48813;SDS011;34634;44.108;3.074;2023-03-24T14:03:45;2.28;;;1.35;;
48813;SDS011;34634;44.108;3.074;2023-03-24T14:06:15;3.15;;;1.50;;
48813;SDS011;34634;44.108;3.074;2023-03-24T14:16:48;2.38;;;1.17;;
48813;SDS011;34634;44.108;3.074;2023-03-24T14:19:17;4.57;;;1.20;;
48813;SDS011;34634;44.108;3.074;2023-03-24T14:21:49;2.90;;;1.50;;
48813;SDS011;34634;44.108;3.074;2023-03-24T14:24:22;7.63;;;1.90;;
48813;SDS011;34634;44.108;3.074;2023-03-24T14:26:49;3.42;;;1.92;;
48813;SDS011;34634;44.108;3.074;2023-03-24T14:32:01;4.53;;;2.15;;
48813;SDS011;34634;44.108;3.074;2023-03-24T14:34:28;3.88;;;1.63;;
48813;SDS011;34634;44.108;3.074;2023-03-24T14:36:59;3.78;;;1.60;;
48813;SDS011;34634;44.108;3.074;2023-03-24T14:39:35;1.65;;;1.20;;
48813;SDS011;34634;44.108;3.074;2023-03-24T14:47:17;4.43;;;1.50;;
48813;SDS011;34634;44.108;3.074;2023-03-24T14:49:45;1.45;;;1.33;;
48813;SDS011;34634;44.108;3.074;2023-03-24T14:52:19;1.80;;;1.02;;
48813;SDS011;34634;44.108;3.074;2023-03-24T14:57:26;0.98;;;0.85;;
48813;SDS011;34634;44.108;3.074;2023-03-24T15:02:40;1.05;;;0.82;;
48813;SDS011;34634;44.108;3.074;2023-03-24T15:07:40;1.65;;;0.85;;
48813;SDS011;34634;44.108;3.074;2023-03-24T15:10:16;1.40;;;0.88;;
48813;SDS011;34634;44.108;3.074;2023-03-24T15:12:46;0.70;;;0.70;;
48813;SDS011;34634;44.108;3.074;2023-03-24T15:15:14;1.27;;;1.17;;
48813;SDS011;34634;44.108;3.074;2023-03-24T15:17:41;1.48;;;1.02;;
48813;SDS011;34634;44.108;3.074;2023-03-24T15:22:50;1.02;;;0.82;;
48813;SDS011;34634;44.108;3.074;2023-03-24T15:25:25;1.23;;;0.98;;
48813;SDS011;34634;44.108;3.074;2023-03-24T15:27:52;2.10;;;0.88;;
48813;SDS011;34634;44.108;3.074;2023-03-24T15:30:19;0.82;;;0.60;;
48813;SDS011;34634;44.108;3.074;2023-03-24T15:32:46;1.60;;;0.60;;
48813;SDS011;34634;44.108;3.074;2023-03-24T15:35:16;0.95;;;0.60;;
48813;SDS011;34634;44.108;3.074;2023-03-24T15:37:47;1.60;;;0.60;;
48813;SDS011;34634;44.108;3.074;2023-03-24T15:42:51;0.50;;;0.50;;
48813;SDS011;34634;44.108;3.074;2023-03-24T15:45:31;2.25;;;0.70;;
48813;SDS011;34634;44.108;3.074;2023-03-24T15:48:02;1.73;;;0.80;;
48813;SDS011;34634;44.108;3.074;2023-03-24T15:50:31;2.08;;;0.73;;
48813;SDS011;34634;44.108;3.074;2023-03-24T15:53:01;0.70;;;0.70;;
48813;SDS011;34634;44.108;3.074;2023-03-24T15:55:32;2.55;;;0.80;;
48813;SDS011;34634;44.108;3.074;2023-03-24T15:58:00;1.52;;;0.88;;
48813;SDS011;34634;44.108;3.074;2023-03-24T16:00:27;0.80;;;0.80;;
48813;SDS011;34634;44.108;3.074;2023-03-24T16:02:59;0.68;;;0.68;;
48813;SDS011;34634;44.108;3.074;2023-03-24T16:05:29;2.35;;;0.47;;
48813;SDS011;34634;44.108;3.074;2023-03-24T16:08:06;0.60;;;0.60;;
48813;SDS011;34634;44.108;3.074;2023-03-24T16:10:37;0.52;;;0.47;;
48813;SDS011;34634;44.108;3.074;2023-03-24T16:13:11;0.38;;;0.38;;
48813;SDS011;34634;44.108;3.074;2023-03-24T16:15:39;0.88;;;0.70;;
48813;SDS011;34634;44.108;3.074;2023-03-24T16:18:07;0.55;;;0.30;;
48813;SDS011;34634;44.108;3.074;2023-03-24T16:20:34;0.70;;;0.40;;
48813;SDS011;34634;44.108;3.074;2023-03-24T16:23:00;0.63;;;0.30;;
48813;SDS011;34634;44.108;3.074;2023-03-24T16:25:27;0.30;;;0.30;;
48813;SDS011;34634;44.108;3.074;2023-03-24T16:27:54;1.15;;;0.30;;
48813;SDS011;34634;44.108;3.074;2023-03-24T16:30:21;0.88;;;0.30;;
48813;SDS011;34634;44.108;3.074;2023-03-24T16:32:49;1.27;;;0.60;;
48813;SDS011;34634;44.108;3.074;2023-03-24T16:35:15;2.35;;;0.50;;
48813;SDS011;34634;44.108;3.074;2023-03-24T16:37:42;1.50;;;0.90;;
48813;SDS011;34634;44.108;3.074;2023-03-24T16:40:17;1.63;;;0.60;;
48813;SDS011;34634;44.108;3.074;2023-03-24T16:42:45;3.88;;;0.90;;
48813;SDS011;34634;44.108;3.074;2023-03-24T16:45:11;2.33;;;0.80;;
48813;SDS011;34634;44.108;3.074;2023-03-24T16:47:38;3.20;;;0.80;;
48813;SDS011;34634;44.108;3.074;2023-03-24T16:50:18;2.20;;;0.88;;
48813;SDS011;34634;44.108;3.074;2023-03-24T16:52:47;1.83;;;0.77;;
48813;SDS011;34634;44.108;3.074;2023-03-24T16:55:14;4.63;;;0.70;;
48813;SDS011;34634;44.108;3.074;2023-03-24T16:57:40;3.10;;;1.52;;
48813;SDS011;34634;44.108;3.074;2023-03-24T17:00:06;1.77;;;0.88;;
48813;SDS011;34634;44.108;3.074;2023-03-24T17:02:36;3.85;;;1.05;;
48813;SDS011;34634;44.108;3.074;2023-03-24T17:05:17;2.40;;;1.05;;
48813;SDS011;34634;44.108;3.074;2023-03-24T17:07:44;6.97;;;1.20;;
48813;SDS011;34634;44.108;3.074;2023-03-24T17:10:11;4.38;;;0.95;;
48813;SDS011;34634;44.108;3.074;2023-03-24T17:12:37;2.40;;;1.17;;
48813;SDS011;34634;44.108;3.074;2023-03-24T17:15:04;7.85;;;1.45;;
48813;SDS011;34634;44.108;3.074;2023-03-24T17:17:30;4.72;;;1.60;;
48813;SDS011;34634;44.108;3.074;2023-03-24T17:19:57;3.08;;;1.30;;
48813;SDS011;34634;44.108;3.074;2023-03-24T17:22:23;4.05;;;1.33;;
48813;SDS011;34634;44.108;3.074;2023-03-24T17:24:50;3.95;;;1.30;;
48813;SDS011;34634;44.108;3.074;2023-03-24T17:27:22;3.13;;;1.20;;
48813;SDS011;34634;44.108;3.074;2023-03-24T17:29:48;3.70;;;1.15;;
48813;SDS011;34634;44.108;3.074;2023-03-24T17:32:16;3.38;;;1.75;;
48813;SDS011;34634;44.108;3.074;2023-03-24T17:34:44;4.88;;;1.60;;
48813;SDS011;34634;44.108;3.074;2023-03-24T17:37:11;3.38;;;1.35;;
48813;SDS011;34634;44.108;3.074;2023-03-24T17:39:37;6.03;;;1.15;;